Hartland, Minnesota
Current Conditions -  °F | °C
As of 3:35 PM on Monday 24 Nov 2014 (Local Time) from KACQ Reporting Station
Light Snow Light Snow  
Wind Chill: -21°   Ceiling: 1500
Heat Index: -10°   Visibility: 3mi
Dew Point: -13°   Wind: 25mph
Humidity: 79%   Direction: 290°WNW
Pressure: 29.65"   Gusts: 31mph
Location:  43.8°N, 93.49°W
Report Text: KACQ 242135Z AUTO 29022G27KT 3SM -SN SCT009 OVC015 M10/M13 A2965 RMK AO2
Loading
Personal Weather Stations






























Interactive Weather Map New forecast layout! Learn more

10-Day Weather Forecast

Advertisements
Track Severe Weather on mobile